createdAt,value
2023-02-09T00:02:17.687Z,0.20
2023-02-09T00:04:44.645Z,0.29
2023-02-09T00:07:11.552Z,0.29
2023-02-09T00:09:38.537Z,0.39
2023-02-09T00:12:24.202Z,0.72
2023-02-09T00:14:51.220Z,0.65
2023-02-09T00:17:21.112Z,0.67
2023-02-09T00:19:50.097Z,0.62
2023-02-09T00:22:21.821Z,0.64
2023-02-09T00:24:50.822Z,0.67
2023-02-09T00:27:20.013Z,0.42
2023-02-09T00:29:49.140Z,0.41
2023-02-09T00:32:16.045Z,0.11
2023-02-09T00:34:45.492Z,0.21
2023-02-09T00:37:12.382Z,0.37
2023-02-09T00:39:39.257Z,0.37
2023-02-09T00:42:06.196Z,0.77
2023-02-09T00:44:41.673Z,0.66
2023-02-09T00:47:14.255Z,0.62
2023-02-09T00:49:41.201Z,0.49
2023-02-09T00:52:09.923Z,0.56
2023-02-09T00:54:37.577Z,0.42
2023-02-09T00:57:05.403Z,0.43
2023-02-09T00:59:36.108Z,0.56
2023-02-09T01:02:06.534Z,0.42
2023-02-09T01:04:33.812Z,0.30
2023-02-09T01:07:05.790Z,0.31
2023-02-09T01:09:32.892Z,0.24
2023-02-09T01:11:59.906Z,0.15
2023-02-09T01:14:29.487Z,0.10
2023-02-09T01:16:58.800Z,0.19
2023-02-09T01:19:26.851Z,0.14
2023-02-09T01:21:53.779Z,0.19
2023-02-09T01:24:20.763Z,0.17
2023-02-09T01:26:50.006Z,-0.04
2023-02-09T01:29:19.346Z,-0.07
2023-02-09T01:31:47.494Z,-0.07
2023-02-09T01:34:17.669Z,-0.15
2023-02-09T01:36:48.336Z,-0.47
2023-02-09T01:39:15.813Z,-0.48
2023-02-09T01:41:46.282Z,-0.20
2023-02-09T01:44:15.756Z,-0.20
2023-02-09T01:46:46.808Z,-0.10
2023-02-09T01:49:18.527Z,-0.10
2023-02-09T01:51:53.857Z,0.10
2023-02-09T01:54:27.612Z,0.11
2023-02-09T01:57:04.373Z,0.14
2023-02-09T01:59:34.841Z,-0.04
2023-02-09T02:02:06.562Z,-0.19
2023-02-09T02:04:34.792Z,-0.27
2023-02-09T02:07:26.860Z,-0.32
2023-02-09T02:09:54.729Z,-0.34
2023-02-09T02:12:22.676Z,-0.56
2023-02-09T02:14:49.584Z,-0.56
2023-02-09T02:17:55.361Z,-0.47
2023-02-09T02:21:08.190Z,-0.39
2023-02-09T02:23:44.439Z,-0.45
2023-02-09T02:26:43.999Z,-0.57
2023-02-09T02:29:45.878Z,-0.46
2023-02-09T02:33:00.236Z,-0.50
2023-02-09T02:36:05.879Z,-0.48
2023-02-09T02:38:41.275Z,-0.50
2023-02-09T02:41:51.639Z,-0.42
2023-02-09T02:44:21.221Z,-0.33
2023-02-09T02:47:03.472Z,-0.46
2023-02-09T02:49:52.113Z,-0.25
2023-02-09T02:52:19.235Z,-0.47
2023-02-09T02:54:53.122Z,-0.59
2023-02-09T02:57:27.391Z,-0.58
2023-02-09T03:00:02.060Z,-0.29
2023-02-09T03:02:40.230Z,-0.57
2023-02-09T03:05:08.647Z,-0.73
2023-02-09T03:07:35.728Z,-0.55
2023-02-09T03:10:23.868Z,-0.44
2023-02-09T03:13:21.273Z,-0.48
2023-02-09T03:16:32.514Z,-0.55
2023-02-09T03:19:19.016Z,-0.45
2023-02-09T03:21:59.192Z,-0.41
2023-02-09T03:24:34.802Z,-0.28
2023-02-09T03:27:21.982Z,-0.39
2023-02-09T03:29:55.124Z,-0.51
2023-02-09T03:32:23.581Z,-0.51
2023-02-09T03:34:52.557Z,-0.53
2023-02-09T03:37:25.409Z,-0.58
2023-02-09T03:39:52.316Z,-0.52
2023-02-09T03:42:22.207Z,-0.50
2023-02-09T03:44:49.135Z,-0.41
2023-02-09T03:47:16.082Z,-0.71
2023-02-09T03:49:45.467Z,-0.72
2023-02-09T03:52:16.187Z,-0.52
2023-02-09T03:54:47.807Z,-0.42
2023-02-09T03:57:14.878Z,-0.59
2023-02-09T03:59:42.059Z,-0.59
2023-02-09T04:02:13.153Z,-0.69
2023-02-09T04:04:40.217Z,-0.78
2023-02-09T04:07:09.521Z,-0.90
2023-02-09T04:09:38.817Z,-0.85
2023-02-09T04:12:09.347Z,-0.89
2023-02-09T04:14:38.543Z,-1.04
2023-02-09T04:17:05.702Z,-0.92
2023-02-09T04:19:35.024Z,-0.90
2023-02-09T04:22:02.287Z,-1.04
2023-02-09T04:24:31.865Z,-0.98
2023-02-09T04:26:58.801Z,-0.93
2023-02-09T04:29:26.377Z,-0.65
2023-02-09T04:31:58.094Z,-0.68
2023-02-09T04:34:25.198Z,-0.56
2023-02-09T04:36:52.353Z,-0.52
2023-02-09T04:39:21.867Z,-0.45
2023-02-09T04:41:48.820Z,-0.42
2023-02-09T04:44:15.905Z,-0.45
2023-02-09T04:46:45.412Z,-0.31
2023-02-09T04:49:12.876Z,-0.24
2023-02-09T04:51:42.505Z,-0.30
2023-02-09T04:54:11.924Z,-0.22
2023-02-09T04:56:39.068Z,-0.10
2023-02-09T04:59:27.253Z,-0.13
2023-02-09T05:01:54.371Z,-0.36
2023-02-09T05:04:21.450Z,-0.25
2023-02-09T05:06:48.467Z,-0.29
2023-02-09T05:09:15.509Z,-0.27
2023-02-09T05:11:45.052Z,-0.20
2023-02-09T05:14:14.210Z,-0.21
2023-02-09T05:16:41.359Z,-0.08
2023-02-09T05:19:10.784Z,-0.17
2023-02-09T05:21:37.830Z,-0.14
2023-02-09T05:24:07.489Z,0.06
2023-02-09T05:26:36.656Z,0.13
2023-02-09T05:29:04.446Z,0.21
2023-02-09T05:31:33.878Z,0.26
2023-02-09T05:34:07.190Z,0.24
2023-02-09T05:36:34.162Z,0.17
2023-02-09T05:39:01.001Z,0.39
2023-02-09T05:41:46.560Z,0.30
2023-02-09T05:44:13.545Z,0.22
2023-02-09T05:46:42.545Z,0.09
2023-02-09T05:49:09.433Z,0.31
2023-02-09T05:51:36.324Z,0.37
2023-02-09T05:54:03.512Z,0.27
2023-02-09T05:56:30.575Z,0.14
2023-02-09T05:58:59.958Z,0.21
2023-02-09T06:01:26.844Z,0.16
2023-02-09T06:03:53.815Z,0.32
2023-02-09T06:06:25.303Z,0.46
2023-02-09T06:08:52.471Z,0.42
2023-02-09T06:11:21.661Z,0.17
2023-02-09T06:13:51.079Z,0.15
2023-02-09T06:16:22.572Z,0.17
2023-02-09T06:18:49.469Z,0.25
2023-02-09T06:21:18.997Z,0.19
2023-02-09T06:23:46.027Z,-0.09
2023-02-09T06:26:15.565Z,0.01
2023-02-09T06:28:45.069Z,-0.23
2023-02-09T06:31:12.673Z,-0.15
2023-02-09T06:33:40.218Z,-0.29
2023-02-09T06:36:08.800Z,-0.21
2023-02-09T06:38:38.262Z,0.20
2023-02-09T06:41:06.040Z,0.32
2023-02-09T06:43:33.210Z,0.38
2023-02-09T06:46:09.381Z,0.45
2023-02-09T06:48:38.185Z,0.78
2023-02-09T06:51:16.562Z,0.75
2023-02-09T06:53:44.072Z,0.73
2023-02-09T06:56:12.368Z,0.73
2023-02-09T06:58:41.043Z,0.75
2023-02-09T07:01:17.086Z,0.74
2023-02-09T07:03:44.505Z,0.73
2023-02-09T07:06:18.021Z,0.67
2023-02-09T07:08:49.464Z,0.81
2023-02-09T07:11:18.314Z,0.96
2023-02-09T07:13:48.279Z,1.12
2023-02-09T07:16:15.392Z,1.03
2023-02-09T07:18:46.976Z,0.73
2023-02-09T07:21:19.909Z,0.66
2023-02-09T07:23:48.837Z,0.96
2023-02-09T07:26:18.058Z,0.82
2023-02-09T07:28:45.848Z,1.05
2023-02-09T07:31:17.025Z,1.16
2023-02-09T07:33:45.050Z,1.40
2023-02-09T07:36:15.518Z,1.84
2023-02-09T07:38:43.042Z,2.31
2023-02-09T07:41:20.668Z,3.00
2023-02-09T07:43:50.734Z,3.81
2023-02-09T07:46:23.367Z,4.25
2023-02-09T07:48:50.340Z,4.50
2023-02-09T07:51:25.526Z,4.13
2023-02-09T07:54:02.725Z,3.73
2023-02-09T07:56:29.829Z,3.32
2023-02-09T07:58:57.753Z,3.24
2023-02-09T08:01:25.667Z,3.42
2023-02-09T08:03:52.718Z,2.99
2023-02-09T08:06:41.014Z,3.21
2023-02-09T08:09:10.073Z,3.48
2023-02-09T08:11:44.643Z,3.76
2023-02-09T08:14:23.995Z,3.26
2023-02-09T08:17:13.294Z,3.46
2023-02-09T08:19:40.348Z,3.58
2023-02-09T08:22:09.778Z,3.49
2023-02-09T08:24:41.513Z,3.59
2023-02-09T08:27:08.671Z,4.09
2023-02-09T08:29:37.665Z,4.16
2023-02-09T08:32:05.013Z,3.89
2023-02-09T08:34:31.873Z,4.01
2023-02-09T08:36:58.950Z,4.66
2023-02-09T08:39:29.646Z,4.64
2023-02-09T08:41:56.559Z,4.95
2023-02-09T08:44:23.495Z,5.46
2023-02-09T08:46:50.482Z,6.36
2023-02-09T08:49:17.540Z,6.34
2023-02-09T08:51:44.515Z,7.38
2023-02-09T08:54:11.430Z,7.96
2023-02-09T08:56:38.365Z,7.16
2023-02-09T08:59:05.551Z,6.88
2023-02-09T09:01:32.656Z,7.06
2023-02-09T09:03:59.562Z,6.59
2023-02-09T09:06:28.615Z,6.90
2023-02-09T09:08:57.560Z,6.94
2023-02-09T09:11:24.500Z,7.53
2023-02-09T09:13:51.361Z,7.25
2023-02-09T09:16:21.619Z,7.90
2023-02-09T09:18:51.867Z,8.55
2023-02-09T09:21:21.752Z,8.30
2023-02-09T09:23:48.860Z,8.18
2023-02-09T09:26:19.286Z,6.94
2023-02-09T09:28:51.233Z,7.94
2023-02-09T09:31:19.711Z,7.58
2023-02-09T09:33:49.201Z,7.10
2023-02-09T09:36:16.171Z,8.10
2023-02-09T09:38:43.358Z,9.21
2023-02-09T09:41:32.516Z,8.66
2023-02-09T09:44:01.930Z,8.25
2023-02-09T09:46:37.531Z,8.58
2023-02-09T09:49:07.802Z,9.86
2023-02-09T09:51:41.060Z,9.28
2023-02-09T09:54:19.545Z,9.58
2023-02-09T09:56:47.962Z,10.22
2023-02-09T09:59:25.059Z,10.04
2023-02-09T10:01:54.166Z,10.35
2023-02-09T10:04:21.368Z,11.41
2023-02-09T10:06:59.590Z,9.62
2023-02-09T10:09:35.162Z,9.89
2023-02-09T10:12:35.838Z,9.04
2023-02-09T10:15:32.160Z,10.19
2023-02-09T10:18:02.315Z,9.96
2023-02-09T10:20:56.729Z,10.83
2023-02-09T10:23:43.322Z,10.67
2023-02-09T10:26:10.720Z,10.33
2023-02-09T10:28:44.996Z,9.38
2023-02-09T10:31:34.159Z,9.94
2023-02-09T10:34:15.860Z,10.96
2023-02-09T10:36:54.410Z,10.46
2023-02-09T10:39:31.434Z,11.12
2023-02-09T10:42:16.355Z,9.76
2023-02-09T10:44:58.153Z,9.13
2023-02-09T10:47:30.813Z,10.22
2023-02-09T10:50:13.893Z,10.50
2023-02-09T10:53:19.354Z,9.84
2023-02-09T10:55:49.504Z,11.18
2023-02-09T10:58:29.569Z,11.41
2023-02-09T11:01:11.259Z,10.68
2023-02-09T11:04:20.025Z,11.19
2023-02-09T11:07:11.687Z,11.29
2023-02-09T11:09:46.870Z,12.13
2023-02-09T11:12:14.409Z,12.91
2023-02-09T11:14:43.199Z,11.37
2023-02-09T11:17:21.835Z,11.88
2023-02-09T11:20:00.437Z,11.49
2023-02-09T11:22:51.487Z,10.98
2023-02-09T11:25:41.632Z,11.14
2023-02-09T11:29:08.516Z,11.17
2023-02-09T11:32:19.879Z,11.86
2023-02-09T11:35:01.861Z,13.18
2023-02-09T11:37:56.481Z,13.56
2023-02-09T11:40:26.140Z,14.04
2023-02-09T11:43:12.268Z,14.50
2023-02-09T11:46:03.659Z,14.02
2023-02-09T11:48:44.771Z,13.39
2023-02-09T11:51:23.542Z,13.58
2023-02-09T11:54:22.764Z,13.47
2023-02-09T11:56:53.331Z,14.25
2023-02-09T11:59:38.061Z,13.44
2023-02-09T12:02:46.115Z,12.93
2023-02-09T12:05:21.268Z,13.67
2023-02-09T12:08:21.599Z,14.03
2023-02-09T12:11:15.156Z,13.63
2023-02-09T12:14:09.645Z,13.01
2023-02-09T12:16:48.169Z,13.35
2023-02-09T12:19:37.882Z,14.16
2023-02-09T12:22:35.620Z,14.25
2023-02-09T12:25:42.566Z,14.38
2023-02-09T12:28:09.702Z,14.39
2023-02-09T12:30:42.808Z,13.78
2023-02-09T12:33:25.267Z,12.23
2023-02-09T12:36:04.115Z,11.94
2023-02-09T12:38:56.840Z,11.75
2023-02-09T12:41:40.996Z,10.99
2023-02-09T12:44:13.872Z,11.62
2023-02-09T12:46:52.868Z,11.24
2023-02-09T12:49:41.590Z,11.28
2023-02-09T12:52:17.381Z,11.80
2023-02-09T12:54:54.140Z,11.94
2023-02-09T12:57:25.408Z,12.01
2023-02-09T13:00:03.762Z,12.85
2023-02-09T13:02:57.676Z,13.11
2023-02-09T13:05:39.137Z,12.73
2023-02-09T13:08:13.193Z,12.45
2023-02-09T13:10:54.951Z,12.58
2023-02-09T13:13:45.140Z,12.78
2023-02-09T13:16:24.106Z,13.06
2023-02-09T13:19:12.689Z,13.16
2023-02-09T13:22:19.909Z,12.40
2023-02-09T13:25:07.708Z,11.04
2023-02-09T13:27:49.493Z,10.38
2023-02-09T13:30:34.600Z,10.35
2023-02-09T13:33:23.522Z,9.25
2023-02-09T13:36:25.813Z,9.31
2023-02-09T13:38:55.918Z,9.09
2023-02-09T13:41:38.977Z,9.02
2023-02-09T13:44:32.195Z,8.83
2023-02-09T13:47:02.171Z,8.40
2023-02-09T13:49:30.536Z,8.25
2023-02-09T13:52:20.565Z,8.21
2023-02-09T13:54:50.302Z,7.53
2023-02-09T13:57:37.709Z,8.04
2023-02-09T14:00:36.030Z,8.26
2023-02-09T14:03:12.487Z,7.88
2023-02-09T14:06:13.947Z,8.13
2023-02-09T14:08:41.704Z,7.92
2023-02-09T14:11:42.235Z,7.96
2023-02-09T14:14:18.416Z,7.67
2023-02-09T14:16:53.551Z,7.93
2023-02-09T14:19:32.527Z,7.80
2023-02-09T14:22:02.693Z,7.99
2023-02-09T14:24:43.759Z,7.87
2023-02-09T14:27:23.955Z,7.63
2023-02-09T14:29:51.119Z,7.16
2023-02-09T14:32:32.347Z,7.13
2023-02-09T14:35:09.567Z,7.38
2023-02-09T14:37:37.787Z,7.54
2023-02-09T14:40:07.596Z,7.17
2023-02-09T14:42:39.620Z,7.17
2023-02-09T14:45:15.888Z,7.05
2023-02-09T14:47:45.785Z,7.27
2023-02-09T14:50:18.131Z,7.17
2023-02-09T14:52:48.199Z,7.08
2023-02-09T14:55:28.537Z,7.42
2023-02-09T14:58:00.168Z,7.55
2023-02-09T15:00:29.075Z,7.34
2023-02-09T15:02:58.578Z,7.57
2023-02-09T15:05:27.018Z,7.62
2023-02-09T15:08:04.250Z,7.51
2023-02-09T15:10:38.608Z,7.35
2023-02-09T15:13:06.021Z,7.58
2023-02-09T15:15:37.567Z,7.06
2023-02-09T15:18:07.267Z,7.38
2023-02-09T15:20:34.799Z,7.64
2023-02-09T15:23:01.759Z,7.61
2023-02-09T15:25:32.179Z,7.19
2023-02-09T15:28:01.028Z,7.04
2023-02-09T15:30:33.652Z,6.89
2023-02-09T15:33:01.092Z,7.09
2023-02-09T15:35:30.344Z,7.16
2023-02-09T15:38:01.915Z,7.32
2023-02-09T15:41:01.606Z,7.39
2023-02-09T15:43:50.266Z,7.35
2023-02-09T15:46:36.036Z,7.39
2023-02-09T15:49:05.545Z,7.37
2023-02-09T15:51:36.624Z,7.16
2023-02-09T15:54:11.204Z,7.24
2023-02-09T15:56:38.794Z,7.19
2023-02-09T15:59:06.391Z,6.77
2023-02-09T16:01:34.634Z,6.99
2023-02-09T16:04:13.389Z,6.98
2023-02-09T16:06:54.385Z,6.90
2023-02-09T16:09:27.900Z,6.95
2023-02-09T16:11:54.857Z,6.78
2023-02-09T16:14:27.611Z,6.60
2023-02-09T16:16:54.566Z,6.13
2023-02-09T16:19:27.330Z,6.09
2023-02-09T16:21:58.583Z,6.41
2023-02-09T16:24:34.295Z,6.35
2023-02-09T16:27:14.917Z,6.37
2023-02-09T16:29:42.250Z,6.13
2023-02-09T16:32:18.994Z,6.05
2023-02-09T16:34:46.227Z,6.15
2023-02-09T16:37:27.922Z,6.18
2023-02-09T16:39:58.045Z,6.39
2023-02-09T16:42:29.422Z,6.18
2023-02-09T16:45:00.245Z,6.21
2023-02-09T16:47:31.675Z,6.38
2023-02-09T16:50:03.339Z,6.36
2023-02-09T16:52:32.898Z,6.32
2023-02-09T16:55:05.591Z,6.34
2023-02-09T16:57:35.143Z,6.47
2023-02-09T17:00:05.593Z,6.17
2023-02-09T17:02:38.044Z,6.03
2023-02-09T17:05:19.452Z,6.23
2023-02-09T17:07:55.178Z,6.40
2023-02-09T17:10:28.486Z,6.45
2023-02-09T17:12:55.831Z,6.34
2023-02-09T17:15:31.065Z,6.37
2023-02-09T17:18:04.604Z,6.34
2023-02-09T17:20:41.332Z,6.08
2023-02-09T17:23:17.591Z,6.00
2023-02-09T17:25:45.563Z,6.02
2023-02-09T17:28:13.324Z,6.15
2023-02-09T17:30:44.791Z,6.14
2023-02-09T17:33:23.906Z,6.17
2023-02-09T17:36:25.274Z,6.27
2023-02-09T17:38:44.847Z,6.49
2023-02-09T17:41:28.445Z,6.59
2023-02-09T17:44:13.909Z,6.67
2023-02-09T17:46:47.441Z,6.48
2023-02-09T17:49:16.946Z,6.53
2023-02-09T17:51:46.257Z,6.46
2023-02-09T17:54:21.032Z,6.37
2023-02-09T17:56:47.993Z,6.22
2023-02-09T17:59:20.369Z,6.34
2023-02-09T18:01:55.112Z,6.59
2023-02-09T18:04:28.731Z,6.44
2023-02-09T18:06:58.273Z,6.36
2023-02-09T18:09:25.292Z,6.06
2023-02-09T18:11:52.294Z,6.26
2023-02-09T18:14:22.213Z,6.58
2023-02-09T18:16:50.480Z,6.43
2023-02-09T18:19:19.716Z,6.38
2023-02-09T18:21:54.213Z,6.02
2023-02-09T18:24:23.488Z,6.02
2023-02-09T18:26:51.190Z,6.15
2023-02-09T18:29:23.645Z,6.21
2023-02-09T18:31:53.310Z,6.08
2023-02-09T18:34:20.377Z,6.12
2023-02-09T18:36:47.293Z,6.13
2023-02-09T18:39:19.790Z,6.14
2023-02-09T18:41:54.349Z,6.24
2023-02-09T18:44:29.058Z,6.26
2023-02-09T18:47:02.728Z,5.88
2023-02-09T18:49:29.946Z,6.13
2023-02-09T18:51:59.429Z,6.15
2023-02-09T18:54:29.940Z,6.26
2023-02-09T18:56:57.228Z,6.30
2023-02-09T18:59:33.392Z,6.27
2023-02-09T19:02:00.764Z,6.31
2023-02-09T19:04:29.979Z,6.43
2023-02-09T19:06:57.037Z,6.54
2023-02-09T19:09:24.138Z,6.57
2023-02-09T19:11:53.331Z,6.57
2023-02-09T19:14:40.694Z,6.37
2023-02-09T19:17:14.627Z,6.63
2023-02-09T19:19:42.155Z,6.75
2023-02-09T19:22:12.063Z,6.42
2023-02-09T19:24:41.523Z,6.65
2023-02-09T19:27:11.314Z,6.52
2023-02-09T19:29:42.657Z,6.50
2023-02-09T19:32:12.466Z,6.41
2023-02-09T19:34:43.143Z,6.21
2023-02-09T19:37:13.108Z,6.24
2023-02-09T19:39:52.158Z,6.23
2023-02-09T19:42:22.838Z,6.33
2023-02-09T19:44:52.267Z,6.77
2023-02-09T19:47:25.601Z,6.75
2023-02-09T19:50:00.745Z,6.46
2023-02-09T19:52:28.682Z,6.91
2023-02-09T19:54:57.658Z,6.71
2023-02-09T19:57:27.112Z,6.47
2023-02-09T19:59:55.805Z,6.58
2023-02-09T20:02:24.586Z,6.41
2023-02-09T20:04:52.672Z,6.38
2023-02-09T20:07:19.737Z,6.74
2023-02-09T20:09:54.241Z,6.67
2023-02-09T20:12:24.104Z,6.63
2023-02-09T20:14:54.324Z,6.68
2023-02-09T20:17:23.538Z,6.64
2023-02-09T20:19:54.812Z,6.64
2023-02-09T20:22:23.603Z,6.60
2023-02-09T20:24:51.282Z,6.43
2023-02-09T20:27:19.422Z,6.42
2023-02-09T20:29:46.799Z,6.16
2023-02-09T20:32:15.130Z,6.33
2023-02-09T20:34:42.664Z,6.54
2023-02-09T20:37:16.344Z,6.61
2023-02-09T20:39:45.948Z,6.54
2023-02-09T20:42:31.949Z,6.29
2023-02-09T20:45:19.689Z,6.35
2023-02-09T20:47:46.630Z,6.15
2023-02-09T20:50:17.846Z,6.14
2023-02-09T20:52:47.086Z,6.05
2023-02-09T20:55:14.268Z,5.99
2023-02-09T20:57:41.312Z,5.76
2023-02-09T21:00:09.921Z,5.83
2023-02-09T21:02:38.804Z,5.54
2023-02-09T21:05:06.122Z,5.53
2023-02-09T21:07:36.072Z,5.53
2023-02-09T21:10:03.275Z,5.57
2023-02-09T21:12:30.199Z,5.53
2023-02-09T21:14:58.705Z,5.59
2023-02-09T21:17:25.631Z,5.47
2023-02-09T21:19:52.560Z,5.36
2023-02-09T21:22:22.040Z,5.66
2023-02-09T21:24:51.852Z,5.70
2023-02-09T21:27:21.070Z,5.71
2023-02-09T21:29:50.309Z,5.66
2023-02-09T21:32:18.332Z,5.45
2023-02-09T21:34:45.548Z,5.42
2023-02-09T21:37:15.468Z,5.45
2023-02-09T21:39:42.501Z,5.55
2023-02-09T21:42:31.478Z,5.42
2023-02-09T21:45:01.733Z,5.51
2023-02-09T21:47:38.539Z,5.34
2023-02-09T21:50:08.574Z,5.44
2023-02-09T21:52:35.771Z,5.26
2023-02-09T21:55:03.664Z,5.05
2023-02-09T21:57:30.779Z,5.13
2023-02-09T21:59:59.027Z,5.05
2023-02-09T22:02:27.404Z,5.07
2023-02-09T22:04:56.533Z,5.01
2023-02-09T22:07:23.508Z,5.14
2023-02-09T22:09:52.866Z,5.29
2023-02-09T22:12:24.694Z,5.36
2023-02-09T22:14:51.583Z,5.31
2023-02-09T22:17:21.496Z,5.35
2023-02-09T22:19:48.444Z,5.45
2023-02-09T22:22:15.327Z,5.44
2023-02-09T22:24:49.728Z,5.46
2023-02-09T22:27:16.672Z,5.31
2023-02-09T22:29:44.291Z,5.33
2023-02-09T22:32:13.460Z,5.42
2023-02-09T22:34:40.417Z,5.54
2023-02-09T22:37:07.366Z,5.74
2023-02-09T22:39:34.281Z,5.82
2023-02-09T22:42:01.253Z,5.87
2023-02-09T22:44:29.967Z,5.88
2023-02-09T22:46:57.275Z,5.89
2023-02-09T22:49:26.760Z,6.04
2023-02-09T22:51:56.142Z,5.82
2023-02-09T22:54:23.011Z,5.75
2023-02-09T22:56:49.918Z,5.99
2023-02-09T22:59:16.946Z,5.93
2023-02-09T23:01:44.815Z,6.11
2023-02-09T23:04:16.537Z,5.91
2023-02-09T23:06:46.532Z,5.99
2023-02-09T23:09:20.759Z,5.87
2023-02-09T23:11:49.764Z,5.81
2023-02-09T23:14:17.122Z,5.71
2023-02-09T23:16:45.566Z,5.76
2023-02-09T23:19:18.406Z,5.64
2023-02-09T23:21:49.130Z,5.75
2023-02-09T23:24:21.689Z,5.70
2023-02-09T23:26:51.852Z,5.36
2023-02-09T23:29:19.246Z,5.62
2023-02-09T23:31:47.366Z,5.50
2023-02-09T23:34:23.806Z,5.35
2023-02-09T23:36:51.225Z,5.49
2023-02-09T23:39:22.449Z,5.05
2023-02-09T23:41:52.166Z,5.22
2023-02-09T23:44:23.643Z,5.16
2023-02-09T23:46:50.552Z,5.33
2023-02-09T23:49:17.453Z,5.21
2023-02-09T23:51:45.958Z,5.31
2023-02-09T23:54:13.007Z,5.14
2023-02-09T23:56:40.078Z,5.18
2023-02-09T23:59:13.026Z,5.29
